sensor_id;sensor_type;location;lat;lon;timestamp;P1;durP1;ratioP1;P2;durP2;ratioP2
20962;SDS011;10640;50.140;8.138;2022-07-29T00:00:44;4.53;;;3.27;;
20962;SDS011;10640;50.140;8.138;2022-07-29T00:03:11;4.10;;;3.13;;
20962;SDS011;10640;50.140;8.138;2022-07-29T00:05:38;6.63;;;3.57;;
20962;SDS011;10640;50.140;8.138;2022-07-29T00:08:06;6.67;;;3.53;;
20962;SDS011;10640;50.140;8.138;2022-07-29T00:10:33;6.40;;;3.67;;
20962;SDS011;10640;50.140;8.138;2022-07-29T00:13:02;9.50;;;3.67;;
20962;SDS011;10640;50.140;8.138;2022-07-29T00:15:29;7.03;;;3.17;;
20962;SDS011;10640;50.140;8.138;2022-07-29T00:17:56;5.60;;;3.40;;
20962;SDS011;10640;50.140;8.138;2022-07-29T00:20:23;3.77;;;3.10;;
20962;SDS011;10640;50.140;8.138;2022-07-29T00:22:50;4.27;;;3.00;;
20962;SDS011;10640;50.140;8.138;2022-07-29T00:25:17;7.60;;;3.43;;
20962;SDS011;10640;50.140;8.138;2022-07-29T00:27:43;4.83;;;3.30;;
20962;SDS011;10640;50.140;8.138;2022-07-29T00:30:12;6.73;;;3.17;;
20962;SDS011;10640;50.140;8.138;2022-07-29T00:32:39;6.40;;;3.10;;
20962;SDS011;10640;50.140;8.138;2022-07-29T00:35:07;6.37;;;3.30;;
20962;SDS011;10640;50.140;8.138;2022-07-29T00:37:52;5.87;;;3.33;;
20962;SDS011;10640;50.140;8.138;2022-07-29T00:40:19;8.53;;;3.60;;
20962;SDS011;10640;50.140;8.138;2022-07-29T00:42:47;5.33;;;3.07;;
20962;SDS011;10640;50.140;8.138;2022-07-29T00:45:16;6.50;;;3.47;;
20962;SDS011;10640;50.140;8.138;2022-07-29T00:47:44;6.67;;;3.80;;
20962;SDS011;10640;50.140;8.138;2022-07-29T00:50:11;5.10;;;3.47;;
20962;SDS011;10640;50.140;8.138;2022-07-29T00:52:39;4.07;;;3.23;;
20962;SDS011;10640;50.140;8.138;2022-07-29T00:55:08;7.20;;;3.57;;
20962;SDS011;10640;50.140;8.138;2022-07-29T00:57:36;6.43;;;3.30;;
20962;SDS011;10640;50.140;8.138;2022-07-29T01:00:04;8.63;;;3.17;;
20962;SDS011;10640;50.140;8.138;2022-07-29T01:02:34;6.57;;;3.70;;
20962;SDS011;10640;50.140;8.138;2022-07-29T01:05:01;6.67;;;3.37;;
20962;SDS011;10640;50.140;8.138;2022-07-29T01:07:28;4.93;;;3.40;;
20962;SDS011;10640;50.140;8.138;2022-07-29T01:09:57;4.80;;;3.67;;
20962;SDS011;10640;50.140;8.138;2022-07-29T01:12:26;4.80;;;3.43;;
20962;SDS011;10640;50.140;8.138;2022-07-29T01:14:57;4.17;;;3.63;;
20962;SDS011;10640;50.140;8.138;2022-07-29T01:17:27;4.87;;;3.47;;
20962;SDS011;10640;50.140;8.138;2022-07-29T01:20:01;5.03;;;3.70;;
20962;SDS011;10640;50.140;8.138;2022-07-29T01:22:35;8.60;;;3.93;;
20962;SDS011;10640;50.140;8.138;2022-07-29T01:25:22;5.40;;;3.73;;
20962;SDS011;10640;50.140;8.138;2022-07-29T01:28:16;7.10;;;3.90;;
20962;SDS011;10640;50.140;8.138;2022-07-29T01:30:56;5.80;;;3.40;;
20962;SDS011;10640;50.140;8.138;2022-07-29T01:33:26;6.37;;;3.87;;
20962;SDS011;10640;50.140;8.138;2022-07-29T01:36:13;7.60;;;3.57;;
20962;SDS011;10640;50.140;8.138;2022-07-29T01:38:44;7.43;;;3.67;;
20962;SDS011;10640;50.140;8.138;2022-07-29T01:41:17;7.07;;;3.60;;
20962;SDS011;10640;50.140;8.138;2022-07-29T01:43:49;4.93;;;3.37;;
20962;SDS011;10640;50.140;8.138;2022-07-29T01:46:20;4.17;;;3.27;;
20962;SDS011;10640;50.140;8.138;2022-07-29T01:48:52;6.07;;;4.20;;
20962;SDS011;10640;50.140;8.138;2022-07-29T01:51:24;4.43;;;3.40;;
20962;SDS011;10640;50.140;8.138;2022-07-29T01:53:57;9.23;;;4.10;;
20962;SDS011;10640;50.140;8.138;2022-07-29T01:56:28;5.87;;;4.00;;
20962;SDS011;10640;50.140;8.138;2022-07-29T01:59:00;4.37;;;3.87;;
20962;SDS011;10640;50.140;8.138;2022-07-29T02:01:29;5.17;;;3.80;;
20962;SDS011;10640;50.140;8.138;2022-07-29T02:03:59;5.33;;;3.53;;
20962;SDS011;10640;50.140;8.138;2022-07-29T02:06:29;5.90;;;3.37;;
20962;SDS011;10640;50.140;8.138;2022-07-29T02:08:58;4.77;;;3.70;;
20962;SDS011;10640;50.140;8.138;2022-07-29T02:11:26;7.37;;;4.03;;
20962;SDS011;10640;50.140;8.138;2022-07-29T02:13:54;7.80;;;3.67;;
20962;SDS011;10640;50.140;8.138;2022-07-29T02:16:24;7.57;;;4.10;;
20962;SDS011;10640;50.140;8.138;2022-07-29T02:18:55;5.17;;;4.03;;
20962;SDS011;10640;50.140;8.138;2022-07-29T02:21:24;5.77;;;4.03;;
20962;SDS011;10640;50.140;8.138;2022-07-29T02:23:52;6.03;;;3.63;;
20962;SDS011;10640;50.140;8.138;2022-07-29T02:26:20;5.27;;;3.87;;
20962;SDS011;10640;50.140;8.138;2022-07-29T02:28:50;5.63;;;4.10;;
20962;SDS011;10640;50.140;8.138;2022-07-29T02:31:21;4.63;;;4.13;;
20962;SDS011;10640;50.140;8.138;2022-07-29T02:33:50;6.40;;;4.27;;
20962;SDS011;10640;50.140;8.138;2022-07-29T02:36:20;5.20;;;4.20;;
20962;SDS011;10640;50.140;8.138;2022-07-29T02:38:49;6.93;;;4.50;;
20962;SDS011;10640;50.140;8.138;2022-07-29T02:41:17;6.83;;;4.37;;
20962;SDS011;10640;50.140;8.138;2022-07-29T02:43:47;5.73;;;4.17;;
20962;SDS011;10640;50.140;8.138;2022-07-29T02:46:21;8.73;;;4.70;;
20962;SDS011;10640;50.140;8.138;2022-07-29T02:48:57;6.70;;;4.80;;
20962;SDS011;10640;50.140;8.138;2022-07-29T02:51:28;5.50;;;4.43;;
20962;SDS011;10640;50.140;8.138;2022-07-29T02:54:01;8.60;;;4.37;;
20962;SDS011;10640;50.140;8.138;2022-07-29T02:56:33;4.67;;;4.27;;
20962;SDS011;10640;50.140;8.138;2022-07-29T02:59:02;5.33;;;4.57;;
20962;SDS011;10640;50.140;8.138;2022-07-29T03:01:34;6.23;;;4.80;;
20962;SDS011;10640;50.140;8.138;2022-07-29T03:04:05;5.20;;;4.20;;
20962;SDS011;10640;50.140;8.138;2022-07-29T03:06:34;5.30;;;4.47;;
20962;SDS011;10640;50.140;8.138;2022-07-29T03:09:04;7.83;;;4.50;;
20962;SDS011;10640;50.140;8.138;2022-07-29T03:11:32;6.70;;;4.50;;
20962;SDS011;10640;50.140;8.138;2022-07-29T03:14:00;4.50;;;4.10;;
20962;SDS011;10640;50.140;8.138;2022-07-29T03:16:27;6.20;;;3.87;;
20962;SDS011;10640;50.140;8.138;2022-07-29T03:18:55;4.73;;;4.10;;
20962;SDS011;10640;50.140;8.138;2022-07-29T03:21:23;6.27;;;4.27;;
20962;SDS011;10640;50.140;8.138;2022-07-29T03:23:50;6.70;;;4.10;;
20962;SDS011;10640;50.140;8.138;2022-07-29T03:26:17;5.17;;;4.00;;
20962;SDS011;10640;50.140;8.138;2022-07-29T03:28:45;7.10;;;4.00;;
20962;SDS011;10640;50.140;8.138;2022-07-29T03:31:12;4.40;;;3.90;;
20962;SDS011;10640;50.140;8.138;2022-07-29T03:33:39;7.80;;;3.90;;
20962;SDS011;10640;50.140;8.138;2022-07-29T03:36:06;7.53;;;3.80;;
20962;SDS011;10640;50.140;8.138;2022-07-29T03:38:34;7.87;;;4.20;;
20962;SDS011;10640;50.140;8.138;2022-07-29T03:41:03;6.13;;;4.27;;
20962;SDS011;10640;50.140;8.138;2022-07-29T03:43:36;11.97;;;4.03;;
20962;SDS011;10640;50.140;8.138;2022-07-29T03:48:55;7.47;;;4.10;;
20962;SDS011;10640;50.140;8.138;2022-07-29T03:51:27;7.87;;;3.97;;
20962;SDS011;10640;50.140;8.138;2022-07-29T03:53:55;8.30;;;4.10;;
20962;SDS011;10640;50.140;8.138;2022-07-29T03:56:22;7.10;;;4.00;;
20962;SDS011;10640;50.140;8.138;2022-07-29T03:58:50;5.53;;;4.23;;
20962;SDS011;10640;50.140;8.138;2022-07-29T04:01:18;4.97;;;4.20;;
20962;SDS011;10640;50.140;8.138;2022-07-29T04:03:47;4.60;;;4.13;;
20962;SDS011;10640;50.140;8.138;2022-07-29T04:06:14;5.20;;;4.47;;
20962;SDS011;10640;50.140;8.138;2022-07-29T04:08:41;4.53;;;3.80;;
20962;SDS011;10640;50.140;8.138;2022-07-29T04:11:09;5.03;;;4.00;;
20962;SDS011;10640;50.140;8.138;2022-07-29T04:13:36;6.73;;;4.40;;
20962;SDS011;10640;50.140;8.138;2022-07-29T04:16:03;6.73;;;4.40;;
20962;SDS011;10640;50.140;8.138;2022-07-29T04:18:30;4.83;;;4.23;;
20962;SDS011;10640;50.140;8.138;2022-07-29T04:20:57;11.03;;;5.30;;
20962;SDS011;10640;50.140;8.138;2022-07-29T04:23:25;10.00;;;4.10;;
20962;SDS011;10640;50.140;8.138;2022-07-29T04:25:52;10.20;;;4.90;;
20962;SDS011;10640;50.140;8.138;2022-07-29T04:28:21;8.03;;;4.67;;
20962;SDS011;10640;50.140;8.138;2022-07-29T04:30:48;11.03;;;5.07;;
20962;SDS011;10640;50.140;8.138;2022-07-29T04:33:15;8.87;;;4.27;;
20962;SDS011;10640;50.140;8.138;2022-07-29T04:35:42;7.87;;;4.80;;
20962;SDS011;10640;50.140;8.138;2022-07-29T04:38:09;4.73;;;4.33;;
20962;SDS011;10640;50.140;8.138;2022-07-29T04:40:36;8.73;;;4.83;;
20962;SDS011;10640;50.140;8.138;2022-07-29T04:43:03;6.77;;;4.57;;
20962;SDS011;10640;50.140;8.138;2022-07-29T04:45:31;6.33;;;4.47;;
20962;SDS011;10640;50.140;8.138;2022-07-29T04:47:58;5.47;;;4.50;;
20962;SDS011;10640;50.140;8.138;2022-07-29T04:50:25;13.20;;;4.53;;
20962;SDS011;10640;50.140;8.138;2022-07-29T04:52:52;7.33;;;4.50;;
20962;SDS011;10640;50.140;8.138;2022-07-29T04:55:19;14.20;;;5.23;;
20962;SDS011;10640;50.140;8.138;2022-07-29T04:57:46;10.57;;;5.47;;
20962;SDS011;10640;50.140;8.138;2022-07-29T05:00:13;5.57;;;4.43;;
20962;SDS011;10640;50.140;8.138;2022-07-29T05:02:41;6.10;;;4.37;;
20962;SDS011;10640;50.140;8.138;2022-07-29T05:05:08;5.90;;;4.03;;
20962;SDS011;10640;50.140;8.138;2022-07-29T05:07:35;6.17;;;4.07;;
20962;SDS011;10640;50.140;8.138;2022-07-29T05:10:02;13.47;;;4.77;;
20962;SDS011;10640;50.140;8.138;2022-07-29T05:12:29;5.40;;;4.20;;
20962;SDS011;10640;50.140;8.138;2022-07-29T05:14:56;5.73;;;4.17;;
20962;SDS011;10640;50.140;8.138;2022-07-29T05:17:23;7.40;;;4.17;;
20962;SDS011;10640;50.140;8.138;2022-07-29T05:19:51;5.83;;;4.13;;
20962;SDS011;10640;50.140;8.138;2022-07-29T05:22:18;7.13;;;4.50;;
20962;SDS011;10640;50.140;8.138;2022-07-29T05:24:45;7.17;;;4.60;;
20962;SDS011;10640;50.140;8.138;2022-07-29T05:27:14;6.10;;;4.27;;
20962;SDS011;10640;50.140;8.138;2022-07-29T05:29:41;5.67;;;3.97;;
20962;SDS011;10640;50.140;8.138;2022-07-29T05:32:08;4.57;;;4.17;;
20962;SDS011;10640;50.140;8.138;2022-07-29T05:34:35;6.30;;;3.87;;
20962;SDS011;10640;50.140;8.138;2022-07-29T05:37:03;6.23;;;4.03;;
20962;SDS011;10640;50.140;8.138;2022-07-29T05:39:30;8.57;;;3.63;;
20962;SDS011;10640;50.140;8.138;2022-07-29T05:41:57;8.53;;;4.00;;
20962;SDS011;10640;50.140;8.138;2022-07-29T05:44:24;7.03;;;3.73;;
20962;SDS011;10640;50.140;8.138;2022-07-29T05:46:50;5.23;;;3.37;;
20962;SDS011;10640;50.140;8.138;2022-07-29T05:49:17;4.53;;;4.03;;
20962;SDS011;10640;50.140;8.138;2022-07-29T05:51:44;9.03;;;3.63;;
20962;SDS011;10640;50.140;8.138;2022-07-29T05:54:13;5.07;;;4.27;;
20962;SDS011;10640;50.140;8.138;2022-07-29T05:56:40;4.23;;;3.43;;
20962;SDS011;10640;50.140;8.138;2022-07-29T05:59:07;4.77;;;3.27;;
20962;SDS011;10640;50.140;8.138;2022-07-29T06:01:34;6.87;;;3.10;;
20962;SDS011;10640;50.140;8.138;2022-07-29T06:04:04;4.70;;;3.30;;
20962;SDS011;10640;50.140;8.138;2022-07-29T06:06:31;4.87;;;3.57;;
20962;SDS011;10640;50.140;8.138;2022-07-29T06:08:58;4.13;;;3.20;;
20962;SDS011;10640;50.140;8.138;2022-07-29T06:11:26;5.10;;;2.87;;
20962;SDS011;10640;50.140;8.138;2022-07-29T06:13:53;5.30;;;3.00;;
20962;SDS011;10640;50.140;8.138;2022-07-29T06:16:20;4.37;;;2.80;;
20962;SDS011;10640;50.140;8.138;2022-07-29T06:18:47;5.37;;;2.70;;
20962;SDS011;10640;50.140;8.138;2022-07-29T06:21:14;5.57;;;2.90;;
20962;SDS011;10640;50.140;8.138;2022-07-29T06:23:41;2.60;;;2.40;;
20962;SDS011;10640;50.140;8.138;2022-07-29T06:26:08;3.20;;;2.50;;
20962;SDS011;10640;50.140;8.138;2022-07-29T06:28:36;3.63;;;2.43;;
20962;SDS011;10640;50.140;8.138;2022-07-29T06:31:06;9.40;;;3.00;;
20962;SDS011;10640;50.140;8.138;2022-07-29T06:33:34;5.07;;;2.70;;
20962;SDS011;10640;50.140;8.138;2022-07-29T06:36:03;3.50;;;2.60;;
20962;SDS011;10640;50.140;8.138;2022-07-29T06:38:30;4.47;;;2.80;;
20962;SDS011;10640;50.140;8.138;2022-07-29T06:40:57;5.43;;;2.67;;
20962;SDS011;10640;50.140;8.138;2022-07-29T06:43:28;6.47;;;2.80;;
20962;SDS011;10640;50.140;8.138;2022-07-29T06:45:59;6.57;;;2.90;;
20962;SDS011;10640;50.140;8.138;2022-07-29T06:48:26;8.30;;;2.80;;
20962;SDS011;10640;50.140;8.138;2022-07-29T06:50:54;5.33;;;2.80;;
20962;SDS011;10640;50.140;8.138;2022-07-29T06:53:21;9.30;;;3.00;;
20962;SDS011;10640;50.140;8.138;2022-07-29T06:55:48;5.03;;;3.07;;
20962;SDS011;10640;50.140;8.138;2022-07-29T06:58:15;5.87;;;2.50;;
20962;SDS011;10640;50.140;8.138;2022-07-29T07:00:43;4.40;;;2.70;;
20962;SDS011;10640;50.140;8.138;2022-07-29T07:03:12;4.90;;;2.47;;
20962;SDS011;10640;50.140;8.138;2022-07-29T07:05:38;3.67;;;2.43;;
20962;SDS011;10640;50.140;8.138;2022-07-29T07:08:06;6.20;;;2.60;;
20962;SDS011;10640;50.140;8.138;2022-07-29T07:10:33;3.53;;;2.50;;
20962;SDS011;10640;50.140;8.138;2022-07-29T07:13:00;2.73;;;2.30;;
20962;SDS011;10640;50.140;8.138;2022-07-29T07:15:27;8.10;;;2.77;;
20962;SDS011;10640;50.140;8.138;2022-07-29T07:17:54;4.77;;;2.70;;
20962;SDS011;10640;50.140;8.138;2022-07-29T07:20:23;5.03;;;2.80;;
20962;SDS011;10640;50.140;8.138;2022-07-29T07:22:51;6.33;;;2.67;;
20962;SDS011;10640;50.140;8.138;2022-07-29T07:25:17;6.10;;;2.70;;
20962;SDS011;10640;50.140;8.138;2022-07-29T07:27:44;7.50;;;3.03;;
20962;SDS011;10640;50.140;8.138;2022-07-29T07:30:11;6.83;;;2.63;;
20962;SDS011;10640;50.140;8.138;2022-07-29T07:32:39;5.33;;;2.33;;
20962;SDS011;10640;50.140;8.138;2022-07-29T07:35:06;7.37;;;3.10;;
20962;SDS011;10640;50.140;8.138;2022-07-29T07:37:36;7.47;;;2.40;;
20962;SDS011;10640;50.140;8.138;2022-07-29T07:40:05;4.97;;;2.53;;
20962;SDS011;10640;50.140;8.138;2022-07-29T07:42:33;4.73;;;2.60;;
20962;SDS011;10640;50.140;8.138;2022-07-29T07:45:00;4.37;;;2.87;;
20962;SDS011;10640;50.140;8.138;2022-07-29T07:47:27;9.63;;;2.90;;
20962;SDS011;10640;50.140;8.138;2022-07-29T07:49:54;4.70;;;2.37;;
20962;SDS011;10640;50.140;8.138;2022-07-29T07:52:22;3.37;;;2.63;;
20962;SDS011;10640;50.140;8.138;2022-07-29T07:54:51;3.43;;;2.47;;
20962;SDS011;10640;50.140;8.138;2022-07-29T07:57:18;5.50;;;2.43;;
20962;SDS011;10640;50.140;8.138;2022-07-29T07:59:57;7.13;;;2.90;;
20962;SDS011;10640;50.140;8.138;2022-07-29T08:02:24;6.23;;;2.70;;
20962;SDS011;10640;50.140;8.138;2022-07-29T08:04:51;4.50;;;3.00;;
20962;SDS011;10640;50.140;8.138;2022-07-29T08:07:18;4.33;;;2.60;;
20962;SDS011;10640;50.140;8.138;2022-07-29T08:09:45;5.53;;;2.80;;
20962;SDS011;10640;50.140;8.138;2022-07-29T08:12:13;6.60;;;2.70;;
20962;SDS011;10640;50.140;8.138;2022-07-29T08:14:40;9.47;;;2.90;;
20962;SDS011;10640;50.140;8.138;2022-07-29T08:17:08;7.23;;;2.63;;
20962;SDS011;10640;50.140;8.138;2022-07-29T08:19:35;4.57;;;2.50;;
20962;SDS011;10640;50.140;8.138;2022-07-29T08:22:02;5.23;;;2.70;;
20962;SDS011;10640;50.140;8.138;2022-07-29T08:24:29;8.23;;;2.47;;
20962;SDS011;10640;50.140;8.138;2022-07-29T08:27:08;7.13;;;2.80;;
20962;SDS011;10640;50.140;8.138;2022-07-29T08:29:37;3.53;;;2.60;;
20962;SDS011;10640;50.140;8.138;2022-07-29T08:32:05;5.60;;;2.80;;
20962;SDS011;10640;50.140;8.138;2022-07-29T08:34:32;6.10;;;2.60;;
20962;SDS011;10640;50.140;8.138;2022-07-29T08:36:59;5.63;;;2.70;;
20962;SDS011;10640;50.140;8.138;2022-07-29T08:39:26;10.43;;;2.70;;
20962;SDS011;10640;50.140;8.138;2022-07-29T08:41:53;6.45;;;2.60;;
20962;SDS011;10640;50.140;8.138;2022-07-29T08:44:20;6.45;;;2.65;;
20962;SDS011;10640;50.140;8.138;2022-07-29T08:46:49;5.32;;;2.55;;
20962;SDS011;10640;50.140;8.138;2022-07-29T08:49:16;4.50;;;3.08;;
20962;SDS011;10640;50.140;8.138;2022-07-29T08:51:43;4.72;;;3.05;;
20962;SDS011;10640;50.140;8.138;2022-07-29T08:54:11;6.93;;;3.05;;
20962;SDS011;10640;50.140;8.138;2022-07-29T08:56:42;4.35;;;2.70;;
20962;SDS011;10640;50.140;8.138;2022-07-29T08:59:10;4.27;;;2.80;;
20962;SDS011;10640;50.140;8.138;2022-07-29T09:01:39;5.50;;;2.77;;
20962;SDS011;10640;50.140;8.138;2022-07-29T09:04:10;5.93;;;2.67;;
20962;SDS011;10640;50.140;8.138;2022-07-29T09:06:39;5.20;;;3.00;;
20962;SDS011;10640;50.140;8.138;2022-07-29T09:09:10;4.23;;;2.63;;
20962;SDS011;10640;50.140;8.138;2022-07-29T09:11:38;5.20;;;3.10;;
20962;SDS011;10640;50.140;8.138;2022-07-29T09:14:05;4.22;;;2.55;;
20962;SDS011;10640;50.140;8.138;2022-07-29T09:16:49;3.40;;;2.90;;
20962;SDS011;10640;50.140;8.138;2022-07-29T09:19:22;4.27;;;2.60;;
20962;SDS011;10640;50.140;8.138;2022-07-29T09:21:50;3.53;;;2.70;;
20962;SDS011;10640;50.140;8.138;2022-07-29T09:24:24;5.43;;;2.60;;
20962;SDS011;10640;50.140;8.138;2022-07-29T09:26:53;8.90;;;2.80;;
20962;SDS011;10640;50.140;8.138;2022-07-29T09:29:21;4.43;;;2.38;;
20962;SDS011;10640;50.140;8.138;2022-07-29T09:31:50;3.83;;;2.72;;
20962;SDS011;10640;50.140;8.138;2022-07-29T09:34:22;5.57;;;2.75;;
20962;SDS011;10640;50.140;8.138;2022-07-29T09:36:51;5.03;;;2.58;;
20962;SDS011;10640;50.140;8.138;2022-07-29T09:39:27;6.22;;;2.80;;
20962;SDS011;10640;50.140;8.138;2022-07-29T09:41:56;3.58;;;2.80;;
20962;SDS011;10640;50.140;8.138;2022-07-29T09:44:24;7.80;;;3.00;;
20962;SDS011;10640;50.140;8.138;2022-07-29T09:46:53;4.97;;;2.67;;
20962;SDS011;10640;50.140;8.138;2022-07-29T09:49:22;8.38;;;2.75;;
20962;SDS011;10640;50.140;8.138;2022-07-29T09:51:58;9.75;;;3.35;;
20962;SDS011;10640;50.140;8.138;2022-07-29T09:54:26;5.93;;;2.60;;
20962;SDS011;10640;50.140;8.138;2022-07-29T09:56:55;10.55;;;3.42;;
20962;SDS011;10640;50.140;8.138;2022-07-29T09:59:22;5.13;;;2.50;;
20962;SDS011;10640;50.140;8.138;2022-07-29T10:01:51;5.18;;;2.60;;
20962;SDS011;10640;50.140;8.138;2022-07-29T10:04:18;5.53;;;2.90;;
20962;SDS011;10640;50.140;8.138;2022-07-29T10:09:36;6.30;;;2.53;;
20962;SDS011;10640;50.140;8.138;2022-07-29T10:12:08;6.80;;;3.00;;
20962;SDS011;10640;50.140;8.138;2022-07-29T10:14:39;3.97;;;2.40;;
20962;SDS011;10640;50.140;8.138;2022-07-29T10:17:07;4.03;;;2.58;;
20962;SDS011;10640;50.140;8.138;2022-07-29T10:19:35;5.38;;;2.60;;
20962;SDS011;10640;50.140;8.138;2022-07-29T10:22:04;5.47;;;2.67;;
20962;SDS011;10640;50.140;8.138;2022-07-29T10:24:33;5.72;;;3.00;;
20962;SDS011;10640;50.140;8.138;2022-07-29T10:27:14;5.25;;;2.60;;
20962;SDS011;10640;50.140;8.138;2022-07-29T10:29:42;7.07;;;2.70;;
20962;SDS011;10640;50.140;8.138;2022-07-29T10:32:21;3.45;;;2.35;;
20962;SDS011;10640;50.140;8.138;2022-07-29T10:38:04;6.07;;;2.55;;
20962;SDS011;10640;50.140;8.138;2022-07-29T10:41:43;6.32;;;3.15;;
20962;SDS011;10640;50.140;8.138;2022-07-29T10:44:21;5.95;;;2.92;;
20962;SDS011;10640;50.140;8.138;2022-07-29T10:46:52;3.50;;;2.60;;
20962;SDS011;10640;50.140;8.138;2022-07-29T10:49:22;2.80;;;2.60;;
20962;SDS011;10640;50.140;8.138;2022-07-29T10:54:45;3.63;;;2.70;;
20962;SDS011;10640;50.140;8.138;2022-07-29T10:57:19;3.10;;;2.58;;
20962;SDS011;10640;50.140;8.138;2022-07-29T10:59:50;5.47;;;2.83;;
20962;SDS011;10640;50.140;8.138;2022-07-29T11:02:42;3.78;;;2.70;;
20962;SDS011;10640;50.140;8.138;2022-07-29T11:05:13;6.68;;;2.65;;
20962;SDS011;10640;50.140;8.138;2022-07-29T11:10:49;4.95;;;2.85;;
20962;SDS011;10640;50.140;8.138;2022-07-29T11:16:15;4.43;;;2.80;;
20962;SDS011;10640;50.140;8.138;2022-07-29T11:21:48;7.30;;;2.90;;
20962;SDS011;10640;50.140;8.138;2022-07-29T11:24:17;5.40;;;2.30;;
20962;SDS011;10640;50.140;8.138;2022-07-29T11:27:09;5.10;;;2.60;;
20962;SDS011;10640;50.140;8.138;2022-07-29T11:29:50;5.38;;;2.75;;
20962;SDS011;10640;50.140;8.138;2022-07-29T11:32:19;4.22;;;2.33;;
20962;SDS011;10640;50.140;8.138;2022-07-29T11:35:20;6.68;;;2.80;;
20962;SDS011;10640;50.140;8.138;2022-07-29T11:38:23;6.25;;;2.80;;
20962;SDS011;10640;50.140;8.138;2022-07-29T11:43:52;2.72;;;2.50;;
20962;SDS011;10640;50.140;8.138;2022-07-29T11:49:10;4.57;;;2.80;;
20962;SDS011;10640;50.140;8.138;2022-07-29T11:51:38;7.30;;;2.85;;
20962;SDS011;10640;50.140;8.138;2022-07-29T11:54:10;8.20;;;3.20;;
20962;SDS011;10640;50.140;8.138;2022-07-29T11:56:42;2.90;;;2.58;;
20962;SDS011;10640;50.140;8.138;2022-07-29T12:04:49;7.13;;;3.10;;
20962;SDS011;10640;50.140;8.138;2022-07-29T12:07:19;3.30;;;2.90;;
20962;SDS011;10640;50.140;8.138;2022-07-29T12:10:08;5.00;;;3.00;;
20962;SDS011;10640;50.140;8.138;2022-07-29T12:12:35;9.23;;;2.90;;
20962;SDS011;10640;50.140;8.138;2022-07-29T12:15:14;5.47;;;2.87;;
20962;SDS011;10640;50.140;8.138;2022-07-29T12:17:45;5.23;;;3.10;;
20962;SDS011;10640;50.140;8.138;2022-07-29T12:20:22;7.07;;;3.33;;
20962;SDS011;10640;50.140;8.138;2022-07-29T12:22:50;6.80;;;3.33;;
20962;SDS011;10640;50.140;8.138;2022-07-29T12:25:18;3.50;;;3.20;;
20962;SDS011;10640;50.140;8.138;2022-07-29T12:27:47;4.83;;;3.40;;
20962;SDS011;10640;50.140;8.138;2022-07-29T12:30:36;13.93;;;4.03;;
20962;SDS011;10640;50.140;8.138;2022-07-29T12:35:41;14.60;;;5.53;;
20962;SDS011;10640;50.140;8.138;2022-07-29T12:38:09;6.77;;;3.63;;
20962;SDS011;10640;50.140;8.138;2022-07-29T12:40:39;5.13;;;3.13;;
20962;SDS011;10640;50.140;8.138;2022-07-29T12:43:07;11.00;;;4.83;;
20962;SDS011;10640;50.140;8.138;2022-07-29T12:48:14;15.67;;;5.00;;
20962;SDS011;10640;50.140;8.138;2022-07-29T12:50:54;10.33;;;5.03;;
20962;SDS011;10640;50.140;8.138;2022-07-29T12:53:24;12.43;;;5.67;;
20962;SDS011;10640;50.140;8.138;2022-07-29T12:55:52;5.87;;;3.83;;
20962;SDS011;10640;50.140;8.138;2022-07-29T12:58:27;6.37;;;3.50;;
20962;SDS011;10640;50.140;8.138;2022-07-29T13:01:03;14.93;;;5.30;;
20962;SDS011;10640;50.140;8.138;2022-07-29T13:03:58;23.80;;;7.27;;
20962;SDS011;10640;50.140;8.138;2022-07-29T13:06:28;20.70;;;7.63;;
20962;SDS011;10640;50.140;8.138;2022-07-29T13:09:02;18.73;;;8.00;;
20962;SDS011;10640;50.140;8.138;2022-07-29T13:11:31;16.07;;;8.00;;
20962;SDS011;10640;50.140;8.138;2022-07-29T13:13:59;17.03;;;7.23;;
20962;SDS011;10640;50.140;8.138;2022-07-29T13:16:26;16.30;;;7.97;;
20962;SDS011;10640;50.140;8.138;2022-07-29T13:21:58;14.20;;;7.70;;
20962;SDS011;10640;50.140;8.138;2022-07-29T13:24:26;9.90;;;5.97;;
20962;SDS011;10640;50.140;8.138;2022-07-29T13:26:53;13.23;;;6.90;;
20962;SDS011;10640;50.140;8.138;2022-07-29T13:29:20;6.17;;;5.27;;
20962;SDS011;10640;50.140;8.138;2022-07-29T13:31:47;12.27;;;6.13;;
20962;SDS011;10640;50.140;8.138;2022-07-29T13:34:14;14.93;;;6.90;;
20962;SDS011;10640;50.140;8.138;2022-07-29T13:36:42;16.00;;;7.17;;
20962;SDS011;10640;50.140;8.138;2022-07-29T13:39:09;11.17;;;6.20;;
20962;SDS011;10640;50.140;8.138;2022-07-29T13:41:36;8.57;;;4.87;;
20962;SDS011;10640;50.140;8.138;2022-07-29T13:44:03;10.77;;;5.60;;
20962;SDS011;10640;50.140;8.138;2022-07-29T13:46:30;9.13;;;5.53;;
20962;SDS011;10640;50.140;8.138;2022-07-29T13:48:57;6.43;;;5.40;;
20962;SDS011;10640;50.140;8.138;2022-07-29T13:51:24;7.90;;;5.20;;
20962;SDS011;10640;50.140;8.138;2022-07-29T13:53:52;8.37;;;5.37;;
20962;SDS011;10640;50.140;8.138;2022-07-29T13:56:19;5.90;;;4.57;;
20962;SDS011;10640;50.140;8.138;2022-07-29T13:58:46;8.00;;;5.00;;
20962;SDS011;10640;50.140;8.138;2022-07-29T14:01:13;9.70;;;5.67;;
20962;SDS011;10640;50.140;8.138;2022-07-29T14:03:41;10.47;;;5.93;;
20962;SDS011;10640;50.140;8.138;2022-07-29T14:06:08;9.70;;;5.33;;
20962;SDS011;10640;50.140;8.138;2022-07-29T14:08:35;6.60;;;4.67;;
20962;SDS011;10640;50.140;8.138;2022-07-29T14:11:03;5.70;;;4.80;;
20962;SDS011;10640;50.140;8.138;2022-07-29T14:13:30;8.67;;;4.43;;
20962;SDS011;10640;50.140;8.138;2022-07-29T14:15:58;6.13;;;4.73;;
20962;SDS011;10640;50.140;8.138;2022-07-29T14:18:25;6.47;;;4.70;;
20962;SDS011;10640;50.140;8.138;2022-07-29T14:20:55;9.57;;;4.63;;
20962;SDS011;10640;50.140;8.138;2022-07-29T14:23:22;7.77;;;4.77;;
20962;SDS011;10640;50.140;8.138;2022-07-29T14:25:50;7.20;;;4.90;;
20962;SDS011;10640;50.140;8.138;2022-07-29T14:28:18;6.43;;;4.60;;
20962;SDS011;10640;50.140;8.138;2022-07-29T14:30:45;9.60;;;4.83;;
20962;SDS011;10640;50.140;8.138;2022-07-29T14:33:12;7.00;;;4.27;;
20962;SDS011;10640;50.140;8.138;2022-07-29T14:35:40;6.30;;;4.23;;
20962;SDS011;10640;50.140;8.138;2022-07-29T14:38:07;4.37;;;3.97;;
20962;SDS011;10640;50.140;8.138;2022-07-29T14:40:34;7.90;;;4.03;;
20962;SDS011;10640;50.140;8.138;2022-07-29T14:43:01;7.40;;;4.77;;
20962;SDS011;10640;50.140;8.138;2022-07-29T14:45:30;6.17;;;4.20;;
20962;SDS011;10640;50.140;8.138;2022-07-29T14:47:57;6.37;;;4.10;;
20962;SDS011;10640;50.140;8.138;2022-07-29T14:50:24;7.47;;;4.00;;
20962;SDS011;10640;50.140;8.138;2022-07-29T14:52:52;4.43;;;3.77;;
20962;SDS011;10640;50.140;8.138;2022-07-29T14:55:20;6.37;;;4.00;;
20962;SDS011;10640;50.140;8.138;2022-07-29T14:57:48;5.87;;;4.20;;
20962;SDS011;10640;50.140;8.138;2022-07-29T15:00:16;6.33;;;3.80;;
20962;SDS011;10640;50.140;8.138;2022-07-29T15:02:45;6.43;;;3.50;;
20962;SDS011;10640;50.140;8.138;2022-07-29T15:05:13;9.33;;;3.83;;
20962;SDS011;10640;50.140;8.138;2022-07-29T15:07:40;8.93;;;3.77;;
20962;SDS011;10640;50.140;8.138;2022-07-29T15:10:08;7.00;;;3.80;;
20962;SDS011;10640;50.140;8.138;2022-07-29T15:12:35;5.47;;;4.00;;
20962;SDS011;10640;50.140;8.138;2022-07-29T15:15:03;5.60;;;3.73;;
20962;SDS011;10640;50.140;8.138;2022-07-29T15:17:30;6.83;;;3.87;;
20962;SDS011;10640;50.140;8.138;2022-07-29T15:19:58;7.43;;;4.47;;
20962;SDS011;10640;50.140;8.138;2022-07-29T15:22:25;7.90;;;4.20;;
20962;SDS011;10640;50.140;8.138;2022-07-29T15:24:52;7.13;;;4.57;;
20962;SDS011;10640;50.140;8.138;2022-07-29T15:27:19;4.77;;;4.27;;
20962;SDS011;10640;50.140;8.138;2022-07-29T15:29:46;8.90;;;4.70;;
20962;SDS011;10640;50.140;8.138;2022-07-29T15:32:16;11.77;;;4.47;;
20962;SDS011;10640;50.140;8.138;2022-07-29T15:34:43;5.17;;;4.23;;
20962;SDS011;10640;50.140;8.138;2022-07-29T15:37:12;5.27;;;4.30;;
20962;SDS011;10640;50.140;8.138;2022-07-29T15:39:39;7.60;;;3.97;;